sensor_id;sensor_type;location;lat;lon;timestamp;temperature;humidity
569;DHT22;269;48.884;9.192;2022-09-28T00:02:12;8.50;99.90
569;DHT22;269;48.884;9.192;2022-09-28T00:04:40;8.50;99.90
569;DHT22;269;48.884;9.192;2022-09-28T00:07:07;8.50;99.90
569;DHT22;269;48.884;9.192;2022-09-28T00:09:34;8.60;99.90
569;DHT22;269;48.884;9.192;2022-09-28T00:12:01;8.50;99.90
569;DHT22;269;48.884;9.192;2022-09-28T00:14:28;8.60;99.90
569;DHT22;269;48.884;9.192;2022-09-28T00:16:57;8.60;99.90
569;DHT22;269;48.884;9.192;2022-09-28T00:19:23;8.60;99.90
569;DHT22;269;48.884;9.192;2022-09-28T00:21:52;8.80;99.90
569;DHT22;269;48.884;9.192;2022-09-28T00:24:19;8.60;99.90
569;DHT22;269;48.884;9.192;2022-09-28T00:26:48;8.60;99.90
569;DHT22;269;48.884;9.192;2022-09-28T00:29:19;8.60;99.90
569;DHT22;269;48.884;9.192;2022-09-28T00:31:47;8.60;99.90
569;DHT22;269;48.884;9.192;2022-09-28T00:34:17;8.60;99.90
569;DHT22;269;48.884;9.192;2022-09-28T00:36:45;8.60;99.90
569;DHT22;269;48.884;9.192;2022-09-28T00:39:15;8.60;99.90
569;DHT22;269;48.884;9.192;2022-09-28T00:41:43;8.70;99.90
569;DHT22;269;48.884;9.192;2022-09-28T00:44:43;8.70;99.90
569;DHT22;269;48.884;9.192;2022-09-28T00:47:19;8.70;99.90
569;DHT22;269;48.884;9.192;2022-09-28T00:49:51;8.70;99.90
569;DHT22;269;48.884;9.192;2022-09-28T00:52:22;8.80;99.90
569;DHT22;269;48.884;9.192;2022-09-28T00:54:52;8.80;99.90
569;DHT22;269;48.884;9.192;2022-09-28T00:57:21;8.80;99.90
569;DHT22;269;48.884;9.192;2022-09-28T00:59:49;8.80;99.90
569;DHT22;269;48.884;9.192;2022-09-28T01:02:17;8.90;99.90
569;DHT22;269;48.884;9.192;2022-09-28T01:04:45;8.90;99.90
569;DHT22;269;48.884;9.192;2022-09-28T01:07:13;8.90;99.90
569;DHT22;269;48.884;9.192;2022-09-28T01:09:43;8.90;99.90
569;DHT22;269;48.884;9.192;2022-09-28T01:12:12;8.90;99.90
569;DHT22;269;48.884;9.192;2022-09-28T01:14:40;8.90;99.90
569;DHT22;269;48.884;9.192;2022-09-28T01:17:13;8.90;99.90
569;DHT22;269;48.884;9.192;2022-09-28T01:20:03;8.90;99.90
569;DHT22;269;48.884;9.192;2022-09-28T01:23:05;8.80;99.90
569;DHT22;269;48.884;9.192;2022-09-28T01:25:40;8.80;99.90
569;DHT22;269;48.884;9.192;2022-09-28T01:28:13;8.80;99.90
569;DHT22;269;48.884;9.192;2022-09-28T01:30:45;8.80;99.90
569;DHT22;269;48.884;9.192;2022-09-28T01:33:19;8.90;99.90
569;DHT22;269;48.884;9.192;2022-09-28T01:35:51;8.90;99.90
569;DHT22;269;48.884;9.192;2022-09-28T01:38:24;8.90;99.90
569;DHT22;269;48.884;9.192;2022-09-28T01:40:53;8.90;99.90
569;DHT22;269;48.884;9.192;2022-09-28T01:43:23;8.90;99.90
569;DHT22;269;48.884;9.192;2022-09-28T01:45:54;8.90;99.90
569;DHT22;269;48.884;9.192;2022-09-28T01:48:25;8.90;99.90
569;DHT22;269;48.884;9.192;2022-09-28T01:50:57;8.90;99.90
569;DHT22;269;48.884;9.192;2022-09-28T01:53:31;9.00;99.90
569;DHT22;269;48.884;9.192;2022-09-28T01:56:07;8.90;99.90
569;DHT22;269;48.884;9.192;2022-09-28T01:58:41;9.00;99.90
569;DHT22;269;48.884;9.192;2022-09-28T02:01:13;9.00;99.90
569;DHT22;269;48.884;9.192;2022-09-28T02:03:46;9.00;99.90
569;DHT22;269;48.884;9.192;2022-09-28T02:06:17;9.00;99.90
569;DHT22;269;48.884;9.192;2022-09-28T02:08:49;9.00;99.90
569;DHT22;269;48.884;9.192;2022-09-28T02:11:19;9.00;99.90
569;DHT22;269;48.884;9.192;2022-09-28T02:13:51;9.10;99.90
569;DHT22;269;48.884;9.192;2022-09-28T02:16:22;9.10;99.90
569;DHT22;269;48.884;9.192;2022-09-28T02:18:51;9.20;99.90
569;DHT22;269;48.884;9.192;2022-09-28T02:21:24;9.30;99.90
569;DHT22;269;48.884;9.192;2022-09-28T02:23:55;9.30;99.90
569;DHT22;269;48.884;9.192;2022-09-28T02:26:28;9.40;99.90
569;DHT22;269;48.884;9.192;2022-09-28T02:28:57;9.40;99.90
569;DHT22;269;48.884;9.192;2022-09-28T02:31:25;9.40;99.90
569;DHT22;269;48.884;9.192;2022-09-28T02:33:53;9.50;99.90
569;DHT22;269;48.884;9.192;2022-09-28T02:36:24;9.50;99.90
569;DHT22;269;48.884;9.192;2022-09-28T02:38:52;9.50;99.90
569;DHT22;269;48.884;9.192;2022-09-28T02:41:28;9.60;99.90
569;DHT22;269;48.884;9.192;2022-09-28T02:44:04;9.60;99.90
569;DHT22;269;48.884;9.192;2022-09-28T02:46:39;9.60;99.90
569;DHT22;269;48.884;9.192;2022-09-28T02:49:17;9.70;99.90
569;DHT22;269;48.884;9.192;2022-09-28T02:57:32;9.70;99.90
569;DHT22;269;48.884;9.192;2022-09-28T03:00:06;9.70;99.90
569;DHT22;269;48.884;9.192;2022-09-28T03:02:40;9.70;99.90
569;DHT22;269;48.884;9.192;2022-09-28T03:05:14;9.70;99.90
569;DHT22;269;48.884;9.192;2022-09-28T03:07:46;9.70;99.90
569;DHT22;269;48.884;9.192;2022-09-28T03:10:23;9.70;99.90
569;DHT22;269;48.884;9.192;2022-09-28T03:12:52;9.70;99.90
569;DHT22;269;48.884;9.192;2022-09-28T03:15:24;9.70;99.90
569;DHT22;269;48.884;9.192;2022-09-28T03:17:52;9.70;99.90
569;DHT22;269;48.884;9.192;2022-09-28T03:20:19;9.70;99.90
569;DHT22;269;48.884;9.192;2022-09-28T03:22:46;9.80;99.90
569;DHT22;269;48.884;9.192;2022-09-28T03:25:13;9.80;99.90
569;DHT22;269;48.884;9.192;2022-09-28T03:27:41;9.80;99.90
569;DHT22;269;48.884;9.192;2022-09-28T03:30:09;9.80;99.90
569;DHT22;269;48.884;9.192;2022-09-28T03:32:38;9.80;99.90
569;DHT22;269;48.884;9.192;2022-09-28T03:35:06;9.80;99.90
569;DHT22;269;48.884;9.192;2022-09-28T03:37:34;9.80;99.90
569;DHT22;269;48.884;9.192;2022-09-28T03:40:01;9.80;99.90
569;DHT22;269;48.884;9.192;2022-09-28T03:42:29;9.80;99.90
569;DHT22;269;48.884;9.192;2022-09-28T03:44:56;9.70;99.90
569;DHT22;269;48.884;9.192;2022-09-28T03:47:23;9.60;99.90
569;DHT22;269;48.884;9.192;2022-09-28T03:49:51;9.60;99.90
569;DHT22;269;48.884;9.192;2022-09-28T03:52:18;9.50;99.90
569;DHT22;269;48.884;9.192;2022-09-28T03:54:45;9.50;99.90
569;DHT22;269;48.884;9.192;2022-09-28T03:57:12;9.60;99.90
569;DHT22;269;48.884;9.192;2022-09-28T03:59:39;9.50;99.90
569;DHT22;269;48.884;9.192;2022-09-28T04:02:07;9.50;99.90
569;DHT22;269;48.884;9.192;2022-09-28T04:04:34;9.50;99.90
569;DHT22;269;48.884;9.192;2022-09-28T04:07:02;9.50;99.90
569;DHT22;269;48.884;9.192;2022-09-28T04:09:29;9.50;99.90
569;DHT22;269;48.884;9.192;2022-09-28T04:11:56;9.50;99.90
569;DHT22;269;48.884;9.192;2022-09-28T04:14:23;9.50;99.90
569;DHT22;269;48.884;9.192;2022-09-28T04:16:50;9.50;99.90
569;DHT22;269;48.884;9.192;2022-09-28T04:19:19;9.50;99.90
569;DHT22;269;48.884;9.192;2022-09-28T04:21:47;9.50;99.90
569;DHT22;269;48.884;9.192;2022-09-28T04:24:17;9.50;99.90
569;DHT22;269;48.884;9.192;2022-09-28T04:26:45;9.50;99.90
569;DHT22;269;48.884;9.192;2022-09-28T04:29:12;9.50;99.90
569;DHT22;269;48.884;9.192;2022-09-28T04:31:43;9.50;99.90
569;DHT22;269;48.884;9.192;2022-09-28T04:34:11;9.50;99.90
569;DHT22;269;48.884;9.192;2022-09-28T04:36:39;9.40;99.90
569;DHT22;269;48.884;9.192;2022-09-28T04:39:06;9.50;99.90
569;DHT22;269;48.884;9.192;2022-09-28T04:41:35;9.50;99.90
569;DHT22;269;48.884;9.192;2022-09-28T04:44:02;9.50;99.90
569;DHT22;269;48.884;9.192;2022-09-28T04:46:30;9.50;99.90
569;DHT22;269;48.884;9.192;2022-09-28T04:48:57;9.50;99.90
569;DHT22;269;48.884;9.192;2022-09-28T04:51:24;9.50;99.90
569;DHT22;269;48.884;9.192;2022-09-28T04:53:51;9.50;99.90
569;DHT22;269;48.884;9.192;2022-09-28T04:56:18;9.50;99.90
569;DHT22;269;48.884;9.192;2022-09-28T04:58:47;9.50;99.90
569;DHT22;269;48.884;9.192;2022-09-28T05:01:16;9.50;99.90
569;DHT22;269;48.884;9.192;2022-09-28T05:03:44;9.50;99.90
569;DHT22;269;48.884;9.192;2022-09-28T05:06:13;9.50;99.90
569;DHT22;269;48.884;9.192;2022-09-28T05:08:41;9.40;99.90
569;DHT22;269;48.884;9.192;2022-09-28T05:11:12;9.40;99.90
569;DHT22;269;48.884;9.192;2022-09-28T05:13:40;9.40;99.90
569;DHT22;269;48.884;9.192;2022-09-28T05:16:10;9.40;99.90
569;DHT22;269;48.884;9.192;2022-09-28T05:18:38;9.40;99.90
569;DHT22;269;48.884;9.192;2022-09-28T05:21:08;9.40;99.90
569;DHT22;269;48.884;9.192;2022-09-28T05:23:36;9.30;99.90
569;DHT22;269;48.884;9.192;2022-09-28T05:26:03;9.30;99.90
569;DHT22;269;48.884;9.192;2022-09-28T05:28:31;9.30;99.90
569;DHT22;269;48.884;9.192;2022-09-28T05:30:58;9.30;99.90
569;DHT22;269;48.884;9.192;2022-09-28T05:33:27;9.40;99.90
569;DHT22;269;48.884;9.192;2022-09-28T05:35:55;9.30;99.90
569;DHT22;269;48.884;9.192;2022-09-28T05:38:22;9.30;99.90
569;DHT22;269;48.884;9.192;2022-09-28T05:40:50;9.30;99.90
569;DHT22;269;48.884;9.192;2022-09-28T05:43:17;9.30;99.90
569;DHT22;269;48.884;9.192;2022-09-28T05:45:44;9.30;99.90
569;DHT22;269;48.884;9.192;2022-09-28T05:48:11;9.30;99.90
569;DHT22;269;48.884;9.192;2022-09-28T05:50:39;9.40;99.90
569;DHT22;269;48.884;9.192;2022-09-28T05:53:08;9.40;99.90
569;DHT22;269;48.884;9.192;2022-09-28T05:55:36;9.40;99.90
569;DHT22;269;48.884;9.192;2022-09-28T05:58:05;9.30;99.90
569;DHT22;269;48.884;9.192;2022-09-28T06:00:33;9.30;99.90
569;DHT22;269;48.884;9.192;2022-09-28T06:03:02;9.20;99.90
569;DHT22;269;48.884;9.192;2022-09-28T06:05:30;9.20;99.90
569;DHT22;269;48.884;9.192;2022-09-28T06:07:58;9.20;99.90
569;DHT22;269;48.884;9.192;2022-09-28T06:10:27;9.20;99.90
569;DHT22;269;48.884;9.192;2022-09-28T06:12:54;9.20;99.90
569;DHT22;269;48.884;9.192;2022-09-28T06:15:22;9.20;99.90
569;DHT22;269;48.884;9.192;2022-09-28T06:17:55;9.20;99.90
569;DHT22;269;48.884;9.192;2022-09-28T06:20:22;9.20;99.90
569;DHT22;269;48.884;9.192;2022-09-28T06:22:50;9.20;99.90
569;DHT22;269;48.884;9.192;2022-09-28T06:25:19;9.30;99.90
569;DHT22;269;48.884;9.192;2022-09-28T06:27:53;9.30;99.90
569;DHT22;269;48.884;9.192;2022-09-28T06:30:20;9.40;99.90
569;DHT22;269;48.884;9.192;2022-09-28T06:32:51;9.40;99.90
569;DHT22;269;48.884;9.192;2022-09-28T06:35:18;9.50;99.90
569;DHT22;269;48.884;9.192;2022-09-28T06:37:46;9.50;99.90
569;DHT22;269;48.884;9.192;2022-09-28T06:40:13;9.50;99.90
569;DHT22;269;48.884;9.192;2022-09-28T06:42:41;9.50;99.90
569;DHT22;269;48.884;9.192;2022-09-28T06:45:09;9.60;99.90
569;DHT22;269;48.884;9.192;2022-09-28T06:47:36;9.60;99.90
569;DHT22;269;48.884;9.192;2022-09-28T06:50:04;9.50;99.90
569;DHT22;269;48.884;9.192;2022-09-28T06:52:37;9.60;99.90
569;DHT22;269;48.884;9.192;2022-09-28T06:55:04;9.60;99.90
569;DHT22;269;48.884;9.192;2022-09-28T06:57:32;9.60;99.90
569;DHT22;269;48.884;9.192;2022-09-28T07:00:01;9.70;99.90
569;DHT22;269;48.884;9.192;2022-09-28T07:02:28;9.70;99.90
569;DHT22;269;48.884;9.192;2022-09-28T07:04:55;9.70;99.90
569;DHT22;269;48.884;9.192;2022-09-28T07:07:23;9.80;99.90
569;DHT22;269;48.884;9.192;2022-09-28T07:09:54;9.80;99.90
569;DHT22;269;48.884;9.192;2022-09-28T07:12:22;9.90;99.90
569;DHT22;269;48.884;9.192;2022-09-28T07:14:51;9.90;99.90
569;DHT22;269;48.884;9.192;2022-09-28T07:17:22;9.90;99.90
569;DHT22;269;48.884;9.192;2022-09-28T07:19:49;10.00;99.90
569;DHT22;269;48.884;9.192;2022-09-28T07:22:18;10.10;99.90
569;DHT22;269;48.884;9.192;2022-09-28T07:24:46;10.10;99.90
569;DHT22;269;48.884;9.192;2022-09-28T07:27:13;10.10;99.90
569;DHT22;269;48.884;9.192;2022-09-28T07:29:41;10.20;99.90
569;DHT22;269;48.884;9.192;2022-09-28T07:32:08;10.20;99.90
569;DHT22;269;48.884;9.192;2022-09-28T07:34:36;10.20;99.90
569;DHT22;269;48.884;9.192;2022-09-28T07:37:08;10.30;99.90
569;DHT22;269;48.884;9.192;2022-09-28T07:39:35;10.30;99.90
569;DHT22;269;48.884;9.192;2022-09-28T07:42:23;10.40;99.90
569;DHT22;269;48.884;9.192;2022-09-28T07:44:49;10.40;99.90
569;DHT22;269;48.884;9.192;2022-09-28T07:47:16;10.40;99.90
569;DHT22;269;48.884;9.192;2022-09-28T07:49:45;10.50;99.90
569;DHT22;269;48.884;9.192;2022-09-28T07:52:15;10.50;99.90
569;DHT22;269;48.884;9.192;2022-09-28T07:54:43;10.60;99.90
569;DHT22;269;48.884;9.192;2022-09-28T07:57:10;10.60;99.90
569;DHT22;269;48.884;9.192;2022-09-28T07:59:37;10.60;99.90
569;DHT22;269;48.884;9.192;2022-09-28T08:02:05;10.60;99.90
569;DHT22;269;48.884;9.192;2022-09-28T08:04:32;10.60;99.90
569;DHT22;269;48.884;9.192;2022-09-28T08:07:00;10.70;99.90
569;DHT22;269;48.884;9.192;2022-09-28T08:09:28;10.70;99.90
569;DHT22;269;48.884;9.192;2022-09-28T08:11:55;10.80;99.90
569;DHT22;269;48.884;9.192;2022-09-28T08:14:24;10.80;99.90
569;DHT22;269;48.884;9.192;2022-09-28T08:16:51;10.90;99.90
569;DHT22;269;48.884;9.192;2022-09-28T08:19:19;10.90;99.90
569;DHT22;269;48.884;9.192;2022-09-28T08:21:45;11.00;99.90
569;DHT22;269;48.884;9.192;2022-09-28T08:24:15;11.10;99.90
569;DHT22;269;48.884;9.192;2022-09-28T08:26:43;11.20;99.90
569;DHT22;269;48.884;9.192;2022-09-28T08:29:10;11.20;99.90
569;DHT22;269;48.884;9.192;2022-09-28T08:31:37;11.20;99.90
569;DHT22;269;48.884;9.192;2022-09-28T08:34:04;11.20;99.90
569;DHT22;269;48.884;9.192;2022-09-28T08:36:31;11.20;99.90
569;DHT22;269;48.884;9.192;2022-09-28T08:38:59;11.20;99.90
569;DHT22;269;48.884;9.192;2022-09-28T08:41:34;11.10;99.90
569;DHT22;269;48.884;9.192;2022-09-28T08:44:11;11.10;99.90
569;DHT22;269;48.884;9.192;2022-09-28T08:46:42;11.00;99.90
569;DHT22;269;48.884;9.192;2022-09-28T08:49:14;11.00;99.90
569;DHT22;269;48.884;9.192;2022-09-28T08:51:46;11.00;99.90
569;DHT22;269;48.884;9.192;2022-09-28T08:54:24;11.10;99.90
569;DHT22;269;48.884;9.192;2022-09-28T08:57:00;11.20;99.90
569;DHT22;269;48.884;9.192;2022-09-28T08:59:35;11.20;99.90
569;DHT22;269;48.884;9.192;2022-09-28T09:02:03;11.40;99.90
569;DHT22;269;48.884;9.192;2022-09-28T09:04:31;11.50;99.90
569;DHT22;269;48.884;9.192;2022-09-28T09:07:22;11.70;99.90
569;DHT22;269;48.884;9.192;2022-09-28T09:09:58;11.80;99.90
569;DHT22;269;48.884;9.192;2022-09-28T09:12:37;11.90;99.90
569;DHT22;269;48.884;9.192;2022-09-28T09:15:24;11.80;99.90
569;DHT22;269;48.884;9.192;2022-09-28T09:18:08;11.80;99.90
569;DHT22;269;48.884;9.192;2022-09-28T09:20:46;11.80;99.90
569;DHT22;269;48.884;9.192;2022-09-28T09:23:17;11.90;99.90
569;DHT22;269;48.884;9.192;2022-09-28T09:25:48;11.80;99.90
569;DHT22;269;48.884;9.192;2022-09-28T09:31:38;11.90;99.90
569;DHT22;269;48.884;9.192;2022-09-28T09:34:21;12.10;99.90
569;DHT22;269;48.884;9.192;2022-09-28T09:37:04;12.20;99.90
569;DHT22;269;48.884;9.192;2022-09-28T09:39:43;12.30;99.90
569;DHT22;269;48.884;9.192;2022-09-28T09:42:28;12.40;99.90
569;DHT22;269;48.884;9.192;2022-09-28T09:45:12;12.50;99.90
569;DHT22;269;48.884;9.192;2022-09-28T09:47:44;12.60;99.90
569;DHT22;269;48.884;9.192;2022-09-28T09:50:20;12.70;99.90
569;DHT22;269;48.884;9.192;2022-09-28T09:52:57;12.80;99.90
569;DHT22;269;48.884;9.192;2022-09-28T09:55:28;12.90;99.90
569;DHT22;269;48.884;9.192;2022-09-28T09:58:03;13.10;99.90
569;DHT22;269;48.884;9.192;2022-09-28T10:00:38;13.30;99.90
569;DHT22;269;48.884;9.192;2022-09-28T10:03:05;13.60;99.90
569;DHT22;269;48.884;9.192;2022-09-28T10:05:36;13.80;99.90
569;DHT22;269;48.884;9.192;2022-09-28T10:08:10;13.80;99.90
569;DHT22;269;48.884;9.192;2022-09-28T10:10:46;13.70;99.90
569;DHT22;269;48.884;9.192;2022-09-28T10:13:14;13.80;99.90
569;DHT22;269;48.884;9.192;2022-09-28T10:15:43;13.70;99.90
569;DHT22;269;48.884;9.192;2022-09-28T10:18:13;13.70;99.90
569;DHT22;269;48.884;9.192;2022-09-28T10:20:42;13.70;99.90
569;DHT22;269;48.884;9.192;2022-09-28T10:23:16;13.50;99.90
569;DHT22;269;48.884;9.192;2022-09-28T10:25:49;13.50;99.90
569;DHT22;269;48.884;9.192;2022-09-28T10:28:20;13.70;99.90
569;DHT22;269;48.884;9.192;2022-09-28T10:30:52;13.90;99.90
569;DHT22;269;48.884;9.192;2022-09-28T10:33:30;14.10;99.90
569;DHT22;269;48.884;9.192;2022-09-28T10:35:59;14.00;99.90
569;DHT22;269;48.884;9.192;2022-09-28T10:38:28;14.10;99.90
569;DHT22;269;48.884;9.192;2022-09-28T10:40:58;14.00;99.90
569;DHT22;269;48.884;9.192;2022-09-28T10:43:27;13.90;99.90
569;DHT22;269;48.884;9.192;2022-09-28T10:46:04;13.80;99.90
569;DHT22;269;48.884;9.192;2022-09-28T10:48:46;13.80;99.90
569;DHT22;269;48.884;9.192;2022-09-28T10:51:42;13.90;99.90
569;DHT22;269;48.884;9.192;2022-09-28T10:54:52;13.90;99.90
569;DHT22;269;48.884;9.192;2022-09-28T10:57:26;13.90;99.90
569;DHT22;269;48.884;9.192;2022-09-28T10:59:53;14.00;99.90
569;DHT22;269;48.884;9.192;2022-09-28T11:02:24;13.60;99.90
569;DHT22;269;48.884;9.192;2022-09-28T11:04:55;13.40;99.90
569;DHT22;269;48.884;9.192;2022-09-28T11:07:25;13.40;99.90
569;DHT22;269;48.884;9.192;2022-09-28T11:09:53;13.40;99.90
569;DHT22;269;48.884;9.192;2022-09-28T11:12:22;13.60;99.90
569;DHT22;269;48.884;9.192;2022-09-28T11:14:55;13.80;99.90
569;DHT22;269;48.884;9.192;2022-09-28T11:17:29;14.00;99.90
569;DHT22;269;48.884;9.192;2022-09-28T11:19:59;14.10;99.90
569;DHT22;269;48.884;9.192;2022-09-28T11:22:27;14.20;99.90
569;DHT22;269;48.884;9.192;2022-09-28T11:25:18;14.50;99.90
569;DHT22;269;48.884;9.192;2022-09-28T11:27:55;14.70;99.90
569;DHT22;269;48.884;9.192;2022-09-28T11:30:25;14.60;99.90
569;DHT22;269;48.884;9.192;2022-09-28T11:32:59;14.60;99.90
569;DHT22;269;48.884;9.192;2022-09-28T11:35:31;14.80;99.90
569;DHT22;269;48.884;9.192;2022-09-28T11:38:24;15.00;99.90
569;DHT22;269;48.884;9.192;2022-09-28T11:41:08;15.30;99.90
569;DHT22;269;48.884;9.192;2022-09-28T11:43:58;15.60;99.90
569;DHT22;269;48.884;9.192;2022-09-28T11:46:32;15.90;99.90
569;DHT22;269;48.884;9.192;2022-09-28T11:49:28;15.80;99.90
569;DHT22;269;48.884;9.192;2022-09-28T11:52:00;15.40;99.90
569;DHT22;269;48.884;9.192;2022-09-28T11:54:34;14.90;99.90
569;DHT22;269;48.884;9.192;2022-09-28T11:57:03;14.60;99.90
569;DHT22;269;48.884;9.192;2022-09-28T11:59:34;14.70;99.90
569;DHT22;269;48.884;9.192;2022-09-28T12:02:12;14.90;99.90
569;DHT22;269;48.884;9.192;2022-09-28T12:04:46;15.20;99.90
569;DHT22;269;48.884;9.192;2022-09-28T12:07:16;15.50;99.90
569;DHT22;269;48.884;9.192;2022-09-28T12:09:51;15.90;99.90
569;DHT22;269;48.884;9.192;2022-09-28T12:12:23;16.10;99.90
569;DHT22;269;48.884;9.192;2022-09-28T12:14:53;16.40;99.90
569;DHT22;269;48.884;9.192;2022-09-28T12:17:25;16.70;99.90
569;DHT22;269;48.884;9.192;2022-09-28T12:20:00;16.80;99.90
569;DHT22;269;48.884;9.192;2022-09-28T12:22:31;16.70;99.90
569;DHT22;269;48.884;9.192;2022-09-28T12:25:01;16.30;99.90
569;DHT22;269;48.884;9.192;2022-09-28T12:27:35;16.00;99.90
569;DHT22;269;48.884;9.192;2022-09-28T12:30:11;15.50;99.90
569;DHT22;269;48.884;9.192;2022-09-28T12:32:43;15.10;99.90
569;DHT22;269;48.884;9.192;2022-09-28T12:35:16;14.80;99.90
569;DHT22;269;48.884;9.192;2022-09-28T12:37:55;14.80;99.90
569;DHT22;269;48.884;9.192;2022-09-28T12:40:34;15.00;99.90
569;DHT22;269;48.884;9.192;2022-09-28T12:43:14;15.40;99.90
569;DHT22;269;48.884;9.192;2022-09-28T12:45:58;15.40;99.90
569;DHT22;269;48.884;9.192;2022-09-28T12:51:33;15.10;99.90
569;DHT22;269;48.884;9.192;2022-09-28T12:54:12;14.80;99.90
569;DHT22;269;48.884;9.192;2022-09-28T12:56:50;14.70;99.90
569;DHT22;269;48.884;9.192;2022-09-28T12:59:24;14.60;99.90
569;DHT22;269;48.884;9.192;2022-09-28T13:02:26;14.60;99.90
569;DHT22;269;48.884;9.192;2022-09-28T13:05:12;14.90;99.90
569;DHT22;269;48.884;9.192;2022-09-28T13:07:50;15.30;99.90
569;DHT22;269;48.884;9.192;2022-09-28T13:10:26;15.50;99.90
569;DHT22;269;48.884;9.192;2022-09-28T13:13:11;15.50;99.90
569;DHT22;269;48.884;9.192;2022-09-28T13:15:50;15.20;99.90
569;DHT22;269;48.884;9.192;2022-09-28T13:18:25;15.00;99.90
569;DHT22;269;48.884;9.192;2022-09-28T13:21:13;14.80;99.90
569;DHT22;269;48.884;9.192;2022-09-28T13:23:46;15.00;99.90
569;DHT22;269;48.884;9.192;2022-09-28T13:26:19;15.10;99.90
569;DHT22;269;48.884;9.192;2022-09-28T13:28:50;15.10;99.90
569;DHT22;269;48.884;9.192;2022-09-28T13:31:21;15.20;99.90
569;DHT22;269;48.884;9.192;2022-09-28T13:33:51;15.40;99.90
569;DHT22;269;48.884;9.192;2022-09-28T13:36:40;15.30;99.90
569;DHT22;269;48.884;9.192;2022-09-28T13:39:37;15.40;99.90
569;DHT22;269;48.884;9.192;2022-09-28T13:42:06;15.70;99.90
569;DHT22;269;48.884;9.192;2022-09-28T13:45:16;15.90;99.90
569;DHT22;269;48.884;9.192;2022-09-28T13:47:56;15.90;99.90
569;DHT22;269;48.884;9.192;2022-09-28T13:50:37;16.20;99.90
569;DHT22;269;48.884;9.192;2022-09-28T13:53:17;16.40;99.90
569;DHT22;269;48.884;9.192;2022-09-28T13:55:55;16.50;99.90
569;DHT22;269;48.884;9.192;2022-09-28T13:58:25;16.60;99.90
569;DHT22;269;48.884;9.192;2022-09-28T14:00:58;16.60;99.90
569;DHT22;269;48.884;9.192;2022-09-28T14:03:41;16.20;99.90
569;DHT22;269;48.884;9.192;2022-09-28T14:06:21;16.00;99.90
569;DHT22;269;48.884;9.192;2022-09-28T14:09:26;15.90;99.90
569;DHT22;269;48.884;9.192;2022-09-28T14:11:56;15.70;99.90
569;DHT22;269;48.884;9.192;2022-09-28T14:14:45;15.80;99.90
569;DHT22;269;48.884;9.192;2022-09-28T14:20:16;16.10;99.90
569;DHT22;269;48.884;9.192;2022-09-28T14:23:13;16.40;99.90
569;DHT22;269;48.884;9.192;2022-09-28T14:25:44;16.80;99.90
569;DHT22;269;48.884;9.192;2022-09-28T14:28:26;16.90;99.90
569;DHT22;269;48.884;9.192;2022-09-28T14:31:06;16.60;99.90
569;DHT22;269;48.884;9.192;2022-09-28T14:33:36;15.90;99.90
569;DHT22;269;48.884;9.192;2022-09-28T14:36:21;15.90;99.90
569;DHT22;269;48.884;9.192;2022-09-28T14:39:18;16.10;99.90
569;DHT22;269;48.884;9.192;2022-09-28T14:42:08;16.40;99.90
569;DHT22;269;48.884;9.192;2022-09-28T14:47:40;16.10;99.90
569;DHT22;269;48.884;9.192;2022-09-28T14:50:21;16.10;99.90
569;DHT22;269;48.884;9.192;2022-09-28T14:52:50;15.80;99.90
569;DHT22;269;48.884;9.192;2022-09-28T14:55:25;15.30;99.90
569;DHT22;269;48.884;9.192;2022-09-28T14:57:55;14.90;99.90
569;DHT22;269;48.884;9.192;2022-09-28T15:00:25;14.80;99.90
569;DHT22;269;48.884;9.192;2022-09-28T15:02:59;14.50;99.90
569;DHT22;269;48.884;9.192;2022-09-28T15:05:28;14.60;99.90
569;DHT22;269;48.884;9.192;2022-09-28T15:07:56;14.70;99.90
569;DHT22;269;48.884;9.192;2022-09-28T15:10:25;14.70;99.90
569;DHT22;269;48.884;9.192;2022-09-28T15:12:58;14.60;99.90
569;DHT22;269;48.884;9.192;2022-09-28T15:15:30;14.70;99.90
569;DHT22;269;48.884;9.192;2022-09-28T15:18:41;14.80;99.90
569;DHT22;269;48.884;9.192;2022-09-28T15:21:12;14.80;99.90
569;DHT22;269;48.884;9.192;2022-09-28T15:23:41;14.80;99.90
569;DHT22;269;48.884;9.192;2022-09-28T15:26:20;14.90;99.90
569;DHT22;269;48.884;9.192;2022-09-28T15:28:48;15.20;99.90
569;DHT22;269;48.884;9.192;2022-09-28T15:31:17;15.10;99.90
569;DHT22;269;48.884;9.192;2022-09-28T15:33:46;15.00;99.90
569;DHT22;269;48.884;9.192;2022-09-28T15:36:33;14.90;99.90
569;DHT22;269;48.884;9.192;2022-09-28T15:39:03;15.10;99.90
569;DHT22;269;48.884;9.192;2022-09-28T15:41:32;15.10;99.90
569;DHT22;269;48.884;9.192;2022-09-28T15:44:06;15.00;99.90
569;DHT22;269;48.884;9.192;2022-09-28T15:46:34;14.90;99.90
569;DHT22;269;48.884;9.192;2022-09-28T15:49:03;14.70;99.90
569;DHT22;269;48.884;9.192;2022-09-28T15:51:45;14.60;99.90
569;DHT22;269;48.884;9.192;2022-09-28T15:54:16;14.60;99.90
569;DHT22;269;48.884;9.192;2022-09-28T15:56:51;14.50;99.90
569;DHT22;269;48.884;9.192;2022-09-28T15:59:25;14.40;99.90
569;DHT22;269;48.884;9.192;2022-09-28T16:02:03;14.20;99.90
569;DHT22;269;48.884;9.192;2022-09-28T16:04:39;14.10;99.90
569;DHT22;269;48.884;9.192;2022-09-28T16:07:24;14.00;99.90
569;DHT22;269;48.884;9.192;2022-09-28T16:09:54;13.90;99.90
569;DHT22;269;48.884;9.192;2022-09-28T16:12:21;13.80;99.90
569;DHT22;269;48.884;9.192;2022-09-28T16:14:50;13.80;99.90
569;DHT22;269;48.884;9.192;2022-09-28T16:17:25;13.80;99.90
569;DHT22;269;48.884;9.192;2022-09-28T16:19:59;13.80;99.90
569;DHT22;269;48.884;9.192;2022-09-28T16:22:28;13.70;99.90
569;DHT22;269;48.884;9.192;2022-09-28T16:24:58;13.60;99.90
569;DHT22;269;48.884;9.192;2022-09-28T16:27:28;13.50;99.90
569;DHT22;269;48.884;9.192;2022-09-28T16:30:12;13.40;99.90
569;DHT22;269;48.884;9.192;2022-09-28T16:32:47;13.30;99.90
569;DHT22;269;48.884;9.192;2022-09-28T16:35:20;13.30;99.90
569;DHT22;269;48.884;9.192;2022-09-28T16:37:57;13.20;99.90
569;DHT22;269;48.884;9.192;2022-09-28T16:40:25;13.10;99.90
569;DHT22;269;48.884;9.192;2022-09-28T16:42:55;13.10;99.90
569;DHT22;269;48.884;9.192;2022-09-28T16:45:23;13.00;99.90
569;DHT22;269;48.884;9.192;2022-09-28T16:47:50;13.00;99.90
569;DHT22;269;48.884;9.192;2022-09-28T16:50:20;13.00;99.90
569;DHT22;269;48.884;9.192;2022-09-28T16:52:48;12.90;99.90
569;DHT22;269;48.884;9.192;2022-09-28T16:55:36;12.90;99.90
569;DHT22;269;48.884;9.192;2022-09-28T16:58:03;12.90;99.90
569;DHT22;269;48.884;9.192;2022-09-28T17:00:31;12.90;99.90
569;DHT22;269;48.884;9.192;2022-09-28T17:02:59;12.80;99.90
569;DHT22;269;48.884;9.192;2022-09-28T17:05:28;12.70;99.90
569;DHT22;269;48.884;9.192;2022-09-28T17:07:59;12.70;99.90
569;DHT22;269;48.884;9.192;2022-09-28T17:10:32;12.60;99.90
569;DHT22;269;48.884;9.192;2022-09-28T17:13:00;12.60;99.90
569;DHT22;269;48.884;9.192;2022-09-28T17:15:27;12.50;99.90
569;DHT22;269;48.884;9.192;2022-09-28T17:17:54;12.50;99.90
569;DHT22;269;48.884;9.192;2022-09-28T17:20:24;12.50;99.90
569;DHT22;269;48.884;9.192;2022-09-28T17:22:53;12.50;99.90
569;DHT22;269;48.884;9.192;2022-09-28T17:25:22;12.40;99.90
569;DHT22;269;48.884;9.192;2022-09-28T17:27:50;12.40;99.90
569;DHT22;269;48.884;9.192;2022-09-28T17:30:19;12.40;99.90
569;DHT22;269;48.884;9.192;2022-09-28T17:32:47;12.30;99.90
569;DHT22;269;48.884;9.192;2022-09-28T17:35:16;12.20;99.90